sensor_id;sensor_type;location;lat;lon;timestamp;P1;durP1;ratioP1;P2;durP2;ratioP2
17363;SDS011;8799;43.594;13.526;2022-11-25T00:00:15;6.00;;;3.20;;
17363;SDS011;8799;43.594;13.526;2022-11-25T00:02:44;5.00;;;3.20;;
17363;SDS011;8799;43.594;13.526;2022-11-25T00:05:13;7.17;;;3.57;;
17363;SDS011;8799;43.594;13.526;2022-11-25T00:07:41;4.83;;;2.77;;
17363;SDS011;8799;43.594;13.526;2022-11-25T00:10:09;4.70;;;2.97;;
17363;SDS011;8799;43.594;13.526;2022-11-25T00:12:37;9.07;;;3.37;;
17363;SDS011;8799;43.594;13.526;2022-11-25T00:15:05;8.40;;;3.20;;
17363;SDS011;8799;43.594;13.526;2022-11-25T00:17:36;5.17;;;3.27;;
17363;SDS011;8799;43.594;13.526;2022-11-25T00:20:05;7.47;;;3.13;;
17363;SDS011;8799;43.594;13.526;2022-11-25T00:22:35;5.30;;;3.30;;
17363;SDS011;8799;43.594;13.526;2022-11-25T00:25:04;5.50;;;2.77;;
17363;SDS011;8799;43.594;13.526;2022-11-25T00:27:32;4.97;;;3.47;;
17363;SDS011;8799;43.594;13.526;2022-11-25T00:30:00;6.50;;;3.43;;
17363;SDS011;8799;43.594;13.526;2022-11-25T00:32:28;5.33;;;3.20;;
17363;SDS011;8799;43.594;13.526;2022-11-25T00:34:56;6.63;;;3.33;;
17363;SDS011;8799;43.594;13.526;2022-11-25T00:37:24;8.40;;;2.70;;
17363;SDS011;8799;43.594;13.526;2022-11-25T00:39:53;6.60;;;2.90;;
17363;SDS011;8799;43.594;13.526;2022-11-25T00:42:22;6.53;;;3.03;;
17363;SDS011;8799;43.594;13.526;2022-11-25T00:45:17;6.93;;;3.07;;
17363;SDS011;8799;43.594;13.526;2022-11-25T00:47:45;5.33;;;2.93;;
17363;SDS011;8799;43.594;13.526;2022-11-25T00:50:13;4.07;;;3.00;;
17363;SDS011;8799;43.594;13.526;2022-11-25T00:52:41;5.67;;;3.00;;
17363;SDS011;8799;43.594;13.526;2022-11-25T00:55:10;5.73;;;3.10;;
17363;SDS011;8799;43.594;13.526;2022-11-25T00:57:39;7.17;;;3.70;;
17363;SDS011;8799;43.594;13.526;2022-11-25T01:00:08;6.30;;;2.80;;
17363;SDS011;8799;43.594;13.526;2022-11-25T01:02:37;5.80;;;2.90;;
17363;SDS011;8799;43.594;13.526;2022-11-25T01:05:05;6.73;;;2.87;;
17363;SDS011;8799;43.594;13.526;2022-11-25T01:07:33;5.60;;;3.30;;
17363;SDS011;8799;43.594;13.526;2022-11-25T01:10:01;4.73;;;3.13;;
17363;SDS011;8799;43.594;13.526;2022-11-25T01:12:31;6.87;;;3.37;;
17363;SDS011;8799;43.594;13.526;2022-11-25T01:15:00;4.83;;;3.10;;
17363;SDS011;8799;43.594;13.526;2022-11-25T01:17:28;5.90;;;3.13;;
17363;SDS011;8799;43.594;13.526;2022-11-25T01:19:56;5.87;;;3.30;;
17363;SDS011;8799;43.594;13.526;2022-11-25T01:22:24;6.00;;;3.20;;
17363;SDS011;8799;43.594;13.526;2022-11-25T01:24:51;4.83;;;3.10;;
17363;SDS011;8799;43.594;13.526;2022-11-25T01:27:19;5.37;;;3.30;;
17363;SDS011;8799;43.594;13.526;2022-11-25T01:29:48;5.30;;;2.70;;
17363;SDS011;8799;43.594;13.526;2022-11-25T01:32:16;10.57;;;3.20;;
17363;SDS011;8799;43.594;13.526;2022-11-25T01:34:44;4.80;;;3.00;;
17363;SDS011;8799;43.594;13.526;2022-11-25T01:37:14;6.97;;;2.97;;
17363;SDS011;8799;43.594;13.526;2022-11-25T01:39:41;4.53;;;3.27;;
17363;SDS011;8799;43.594;13.526;2022-11-25T01:42:09;5.33;;;3.30;;
17363;SDS011;8799;43.594;13.526;2022-11-25T01:44:38;5.47;;;3.27;;
17363;SDS011;8799;43.594;13.526;2022-11-25T01:47:11;5.47;;;3.20;;
17363;SDS011;8799;43.594;13.526;2022-11-25T01:49:42;7.73;;;3.33;;
17363;SDS011;8799;43.594;13.526;2022-11-25T01:52:15;7.23;;;3.20;;
17363;SDS011;8799;43.594;13.526;2022-11-25T01:54:48;5.20;;;3.57;;
17363;SDS011;8799;43.594;13.526;2022-11-25T01:57:22;4.47;;;3.03;;
17363;SDS011;8799;43.594;13.526;2022-11-25T01:59:53;5.97;;;3.47;;
17363;SDS011;8799;43.594;13.526;2022-11-25T02:02:27;5.00;;;3.10;;
17363;SDS011;8799;43.594;13.526;2022-11-25T02:04:56;6.43;;;3.33;;
17363;SDS011;8799;43.594;13.526;2022-11-25T02:07:28;5.47;;;3.53;;
17363;SDS011;8799;43.594;13.526;2022-11-25T02:10:01;5.33;;;3.43;;
17363;SDS011;8799;43.594;13.526;2022-11-25T02:12:32;4.93;;;3.00;;
17363;SDS011;8799;43.594;13.526;2022-11-25T02:15:01;4.87;;;2.90;;
17363;SDS011;8799;43.594;13.526;2022-11-25T02:17:32;8.07;;;3.17;;
17363;SDS011;8799;43.594;13.526;2022-11-25T02:20:00;4.33;;;3.07;;
17363;SDS011;8799;43.594;13.526;2022-11-25T02:22:36;5.70;;;3.57;;
17363;SDS011;8799;43.594;13.526;2022-11-25T02:25:16;5.23;;;3.37;;
17363;SDS011;8799;43.594;13.526;2022-11-25T02:27:47;5.67;;;3.33;;
17363;SDS011;8799;43.594;13.526;2022-11-25T02:30:17;5.70;;;3.00;;
17363;SDS011;8799;43.594;13.526;2022-11-25T02:32:45;5.07;;;3.00;;
17363;SDS011;8799;43.594;13.526;2022-11-25T02:35:24;7.23;;;3.27;;
17363;SDS011;8799;43.594;13.526;2022-11-25T02:37:55;5.47;;;2.97;;
17363;SDS011;8799;43.594;13.526;2022-11-25T02:40:27;5.77;;;2.73;;
17363;SDS011;8799;43.594;13.526;2022-11-25T02:42:57;5.50;;;3.13;;
17363;SDS011;8799;43.594;13.526;2022-11-25T02:45:29;6.07;;;3.50;;
17363;SDS011;8799;43.594;13.526;2022-11-25T02:48:07;4.77;;;3.10;;
17363;SDS011;8799;43.594;13.526;2022-11-25T02:50:35;5.07;;;3.40;;
17363;SDS011;8799;43.594;13.526;2022-11-25T02:53:04;7.03;;;3.30;;
17363;SDS011;8799;43.594;13.526;2022-11-25T02:55:33;6.87;;;3.17;;
17363;SDS011;8799;43.594;13.526;2022-11-25T02:58:01;7.07;;;3.20;;
17363;SDS011;8799;43.594;13.526;2022-11-25T03:00:29;5.80;;;2.87;;
17363;SDS011;8799;43.594;13.526;2022-11-25T03:02:57;4.57;;;3.10;;
17363;SDS011;8799;43.594;13.526;2022-11-25T03:05:25;6.67;;;3.17;;
17363;SDS011;8799;43.594;13.526;2022-11-25T03:07:53;4.13;;;3.07;;
17363;SDS011;8799;43.594;13.526;2022-11-25T03:10:21;5.73;;;2.87;;
17363;SDS011;8799;43.594;13.526;2022-11-25T03:12:50;5.17;;;3.07;;
17363;SDS011;8799;43.594;13.526;2022-11-25T03:15:18;5.83;;;3.30;;
17363;SDS011;8799;43.594;13.526;2022-11-25T03:17:47;6.90;;;2.83;;
17363;SDS011;8799;43.594;13.526;2022-11-25T03:20:15;5.73;;;3.10;;
17363;SDS011;8799;43.594;13.526;2022-11-25T03:22:43;4.90;;;2.83;;
17363;SDS011;8799;43.594;13.526;2022-11-25T03:25:12;5.67;;;2.70;;
17363;SDS011;8799;43.594;13.526;2022-11-25T03:27:40;5.37;;;3.37;;
17363;SDS011;8799;43.594;13.526;2022-11-25T03:30:12;7.30;;;2.60;;
17363;SDS011;8799;43.594;13.526;2022-11-25T03:32:41;4.27;;;2.73;;
17363;SDS011;8799;43.594;13.526;2022-11-25T03:35:09;4.33;;;3.00;;
17363;SDS011;8799;43.594;13.526;2022-11-25T03:37:37;4.63;;;2.97;;
17363;SDS011;8799;43.594;13.526;2022-11-25T03:40:06;4.80;;;2.83;;
17363;SDS011;8799;43.594;13.526;2022-11-25T03:42:35;5.00;;;2.90;;
17363;SDS011;8799;43.594;13.526;2022-11-25T03:45:04;4.87;;;2.60;;
17363;SDS011;8799;43.594;13.526;2022-11-25T03:47:35;5.43;;;2.80;;
17363;SDS011;8799;43.594;13.526;2022-11-25T03:50:04;5.93;;;3.00;;
17363;SDS011;8799;43.594;13.526;2022-11-25T03:52:33;5.80;;;3.10;;
17363;SDS011;8799;43.594;13.526;2022-11-25T03:55:01;4.83;;;2.93;;
17363;SDS011;8799;43.594;13.526;2022-11-25T03:57:30;6.60;;;2.80;;
17363;SDS011;8799;43.594;13.526;2022-11-25T03:59:58;4.13;;;2.70;;
17363;SDS011;8799;43.594;13.526;2022-11-25T04:02:26;4.43;;;2.73;;
17363;SDS011;8799;43.594;13.526;2022-11-25T04:04:55;4.57;;;2.87;;
17363;SDS011;8799;43.594;13.526;2022-11-25T04:07:23;5.37;;;2.93;;
17363;SDS011;8799;43.594;13.526;2022-11-25T04:09:50;5.50;;;3.03;;
17363;SDS011;8799;43.594;13.526;2022-11-25T04:12:18;5.20;;;2.97;;
17363;SDS011;8799;43.594;13.526;2022-11-25T04:15:03;4.00;;;2.60;;
17363;SDS011;8799;43.594;13.526;2022-11-25T04:17:31;5.80;;;2.90;;
17363;SDS011;8799;43.594;13.526;2022-11-25T04:20:01;5.63;;;3.00;;
17363;SDS011;8799;43.594;13.526;2022-11-25T04:22:30;3.63;;;2.53;;
17363;SDS011;8799;43.594;13.526;2022-11-25T04:24:57;5.53;;;2.70;;
17363;SDS011;8799;43.594;13.526;2022-11-25T04:27:25;5.87;;;2.97;;
17363;SDS011;8799;43.594;13.526;2022-11-25T04:29:52;6.47;;;3.17;;
17363;SDS011;8799;43.594;13.526;2022-11-25T04:32:20;5.10;;;2.87;;
17363;SDS011;8799;43.594;13.526;2022-11-25T04:34:48;4.77;;;2.43;;
17363;SDS011;8799;43.594;13.526;2022-11-25T04:37:18;8.67;;;2.90;;
17363;SDS011;8799;43.594;13.526;2022-11-25T04:39:45;2.50;;;2.10;;
17363;SDS011;8799;43.594;13.526;2022-11-25T04:42:14;4.17;;;2.50;;
17363;SDS011;8799;43.594;13.526;2022-11-25T04:45:01;5.20;;;2.67;;
17363;SDS011;8799;43.594;13.526;2022-11-25T04:47:32;4.27;;;2.93;;
17363;SDS011;8799;43.594;13.526;2022-11-25T04:50:00;5.13;;;2.70;;
17363;SDS011;8799;43.594;13.526;2022-11-25T04:52:30;8.70;;;2.80;;
17363;SDS011;8799;43.594;13.526;2022-11-25T04:54:59;5.80;;;2.43;;
17363;SDS011;8799;43.594;13.526;2022-11-25T04:57:27;4.70;;;2.60;;
17363;SDS011;8799;43.594;13.526;2022-11-25T04:59:55;6.80;;;2.70;;
17363;SDS011;8799;43.594;13.526;2022-11-25T05:02:22;4.10;;;2.37;;
17363;SDS011;8799;43.594;13.526;2022-11-25T05:04:51;5.23;;;2.83;;
17363;SDS011;8799;43.594;13.526;2022-11-25T05:07:20;5.27;;;2.83;;
17363;SDS011;8799;43.594;13.526;2022-11-25T05:09:51;5.57;;;2.70;;
17363;SDS011;8799;43.594;13.526;2022-11-25T05:12:20;4.50;;;2.60;;
17363;SDS011;8799;43.594;13.526;2022-11-25T05:14:50;3.57;;;2.43;;
17363;SDS011;8799;43.594;13.526;2022-11-25T05:17:18;5.37;;;2.73;;
17363;SDS011;8799;43.594;13.526;2022-11-25T05:19:47;5.67;;;2.40;;
17363;SDS011;8799;43.594;13.526;2022-11-25T05:22:17;7.63;;;2.70;;
17363;SDS011;8799;43.594;13.526;2022-11-25T05:24:46;4.70;;;2.43;;
17363;SDS011;8799;43.594;13.526;2022-11-25T05:27:16;4.63;;;2.43;;
17363;SDS011;8799;43.594;13.526;2022-11-25T05:29:44;4.10;;;2.43;;
17363;SDS011;8799;43.594;13.526;2022-11-25T05:32:12;5.97;;;2.77;;
17363;SDS011;8799;43.594;13.526;2022-11-25T05:34:40;4.80;;;2.43;;
17363;SDS011;8799;43.594;13.526;2022-11-25T05:37:09;5.83;;;2.67;;
17363;SDS011;8799;43.594;13.526;2022-11-25T05:39:39;3.40;;;2.40;;
17363;SDS011;8799;43.594;13.526;2022-11-25T05:42:06;4.00;;;2.50;;
17363;SDS011;8799;43.594;13.526;2022-11-25T05:44:36;5.93;;;2.47;;
17363;SDS011;8799;43.594;13.526;2022-11-25T05:47:04;5.40;;;2.73;;
17363;SDS011;8799;43.594;13.526;2022-11-25T05:49:31;3.87;;;2.50;;
17363;SDS011;8799;43.594;13.526;2022-11-25T05:51:59;4.03;;;2.47;;
17363;SDS011;8799;43.594;13.526;2022-11-25T05:54:27;2.97;;;2.03;;
17363;SDS011;8799;43.594;13.526;2022-11-25T05:56:55;4.17;;;2.40;;
17363;SDS011;8799;43.594;13.526;2022-11-25T05:59:23;4.17;;;2.53;;
17363;SDS011;8799;43.594;13.526;2022-11-25T06:01:53;4.03;;;2.27;;
17363;SDS011;8799;43.594;13.526;2022-11-25T06:04:20;4.87;;;2.50;;
17363;SDS011;8799;43.594;13.526;2022-11-25T06:06:48;5.93;;;2.30;;
17363;SDS011;8799;43.594;13.526;2022-11-25T06:09:16;4.97;;;2.57;;
17363;SDS011;8799;43.594;13.526;2022-11-25T06:11:44;8.87;;;2.67;;
17363;SDS011;8799;43.594;13.526;2022-11-25T06:14:13;5.23;;;2.70;;
17363;SDS011;8799;43.594;13.526;2022-11-25T06:16:41;17.80;;;2.80;;
17363;SDS011;8799;43.594;13.526;2022-11-25T06:19:11;3.73;;;2.17;;
17363;SDS011;8799;43.594;13.526;2022-11-25T06:21:40;10.77;;;2.13;;
17363;SDS011;8799;43.594;13.526;2022-11-25T06:24:08;3.43;;;2.10;;
17363;SDS011;8799;43.594;13.526;2022-11-25T06:26:36;6.27;;;2.63;;
17363;SDS011;8799;43.594;13.526;2022-11-25T06:29:04;3.40;;;2.23;;
17363;SDS011;8799;43.594;13.526;2022-11-25T06:31:31;5.00;;;2.67;;
17363;SDS011;8799;43.594;13.526;2022-11-25T06:33:59;4.90;;;2.53;;
17363;SDS011;8799;43.594;13.526;2022-11-25T06:36:29;8.67;;;2.30;;
17363;SDS011;8799;43.594;13.526;2022-11-25T06:38:57;4.97;;;2.67;;
17363;SDS011;8799;43.594;13.526;2022-11-25T06:41:26;4.63;;;2.50;;
17363;SDS011;8799;43.594;13.526;2022-11-25T06:43:53;5.07;;;2.47;;
17363;SDS011;8799;43.594;13.526;2022-11-25T06:46:22;6.33;;;2.30;;
17363;SDS011;8799;43.594;13.526;2022-11-25T06:48:50;5.27;;;2.70;;
17363;SDS011;8799;43.594;13.526;2022-11-25T06:51:18;3.30;;;2.13;;
17363;SDS011;8799;43.594;13.526;2022-11-25T06:53:47;5.23;;;2.23;;
17363;SDS011;8799;43.594;13.526;2022-11-25T06:56:16;3.53;;;2.20;;
17363;SDS011;8799;43.594;13.526;2022-11-25T06:58:47;5.43;;;2.40;;
17363;SDS011;8799;43.594;13.526;2022-11-25T07:01:18;8.13;;;2.40;;
17363;SDS011;8799;43.594;13.526;2022-11-25T07:03:47;3.23;;;2.13;;
17363;SDS011;8799;43.594;13.526;2022-11-25T07:06:16;3.80;;;2.40;;
17363;SDS011;8799;43.594;13.526;2022-11-25T07:08:45;6.13;;;2.73;;
17363;SDS011;8799;43.594;13.526;2022-11-25T07:11:15;4.77;;;1.97;;
17363;SDS011;8799;43.594;13.526;2022-11-25T07:13:45;5.03;;;2.47;;
17363;SDS011;8799;43.594;13.526;2022-11-25T07:16:15;6.00;;;2.43;;
17363;SDS011;8799;43.594;13.526;2022-11-25T07:18:43;7.17;;;2.00;;
17363;SDS011;8799;43.594;13.526;2022-11-25T07:21:11;3.97;;;2.07;;
17363;SDS011;8799;43.594;13.526;2022-11-25T07:23:41;4.93;;;2.20;;
17363;SDS011;8799;43.594;13.526;2022-11-25T07:26:10;10.97;;;2.23;;
17363;SDS011;8799;43.594;13.526;2022-11-25T07:28:41;8.47;;;2.33;;
17363;SDS011;8799;43.594;13.526;2022-11-25T07:31:12;3.73;;;2.03;;
17363;SDS011;8799;43.594;13.526;2022-11-25T07:33:42;9.13;;;2.53;;
17363;SDS011;8799;43.594;13.526;2022-11-25T07:36:10;5.20;;;2.47;;
17363;SDS011;8799;43.594;13.526;2022-11-25T07:38:39;4.77;;;2.40;;
17363;SDS011;8799;43.594;13.526;2022-11-25T07:41:08;10.40;;;2.20;;
17363;SDS011;8799;43.594;13.526;2022-11-25T07:43:37;7.87;;;2.20;;
17363;SDS011;8799;43.594;13.526;2022-11-25T07:46:11;5.93;;;2.43;;
17363;SDS011;8799;43.594;13.526;2022-11-25T07:48:41;8.80;;;2.33;;
17363;SDS011;8799;43.594;13.526;2022-11-25T07:51:13;5.70;;;2.43;;
17363;SDS011;8799;43.594;13.526;2022-11-25T07:53:44;5.87;;;2.40;;
17363;SDS011;8799;43.594;13.526;2022-11-25T07:56:13;5.73;;;2.40;;
17363;SDS011;8799;43.594;13.526;2022-11-25T07:58:41;6.03;;;2.40;;
17363;SDS011;8799;43.594;13.526;2022-11-25T08:01:11;5.67;;;2.40;;
17363;SDS011;8799;43.594;13.526;2022-11-25T08:03:41;7.90;;;2.30;;
17363;SDS011;8799;43.594;13.526;2022-11-25T08:06:10;7.73;;;2.70;;
17363;SDS011;8799;43.594;13.526;2022-11-25T08:08:39;8.73;;;1.90;;
17363;SDS011;8799;43.594;13.526;2022-11-25T08:11:08;13.07;;;2.50;;
17363;SDS011;8799;43.594;13.526;2022-11-25T08:13:37;4.13;;;2.40;;
17363;SDS011;8799;43.594;13.526;2022-11-25T08:16:06;8.93;;;2.27;;
17363;SDS011;8799;43.594;13.526;2022-11-25T08:18:36;10.93;;;2.80;;
17363;SDS011;8799;43.594;13.526;2022-11-25T08:21:05;5.87;;;2.50;;
17363;SDS011;8799;43.594;13.526;2022-11-25T08:23:34;10.40;;;2.40;;
17363;SDS011;8799;43.594;13.526;2022-11-25T08:26:03;4.57;;;2.00;;
17363;SDS011;8799;43.594;13.526;2022-11-25T08:28:32;3.43;;;2.10;;
17363;SDS011;8799;43.594;13.526;2022-11-25T08:31:00;6.60;;;2.00;;
17363;SDS011;8799;43.594;13.526;2022-11-25T08:33:29;4.27;;;2.20;;
17363;SDS011;8799;43.594;13.526;2022-11-25T08:35:59;6.27;;;2.57;;
17363;SDS011;8799;43.594;13.526;2022-11-25T08:38:26;7.10;;;2.57;;
17363;SDS011;8799;43.594;13.526;2022-11-25T08:40:55;3.77;;;2.03;;
17363;SDS011;8799;43.594;13.526;2022-11-25T08:43:23;8.53;;;2.40;;
17363;SDS011;8799;43.594;13.526;2022-11-25T08:45:52;5.90;;;2.53;;
17363;SDS011;8799;43.594;13.526;2022-11-25T08:48:20;6.83;;;2.20;;
17363;SDS011;8799;43.594;13.526;2022-11-25T08:50:49;5.77;;;2.27;;
17363;SDS011;8799;43.594;13.526;2022-11-25T08:53:20;3.97;;;2.37;;
17363;SDS011;8799;43.594;13.526;2022-11-25T08:55:48;5.10;;;2.17;;
17363;SDS011;8799;43.594;13.526;2022-11-25T08:58:15;5.87;;;1.97;;
17363;SDS011;8799;43.594;13.526;2022-11-25T09:00:44;4.03;;;2.20;;
17363;SDS011;8799;43.594;13.526;2022-11-25T09:03:11;9.40;;;2.00;;
17363;SDS011;8799;43.594;13.526;2022-11-25T09:05:39;4.77;;;2.13;;
17363;SDS011;8799;43.594;13.526;2022-11-25T09:08:09;3.33;;;2.10;;
17363;SDS011;8799;43.594;13.526;2022-11-25T09:10:39;3.57;;;2.07;;
17363;SDS011;8799;43.594;13.526;2022-11-25T09:13:06;3.03;;;2.20;;
17363;SDS011;8799;43.594;13.526;2022-11-25T09:15:34;2.90;;;2.00;;
17363;SDS011;8799;43.594;13.526;2022-11-25T09:18:03;4.73;;;2.27;;
17363;SDS011;8799;43.594;13.526;2022-11-25T09:20:33;5.40;;;2.20;;
17363;SDS011;8799;43.594;13.526;2022-11-25T09:23:03;11.97;;;2.43;;
17363;SDS011;8799;43.594;13.526;2022-11-25T09:25:32;4.00;;;2.40;;
17363;SDS011;8799;43.594;13.526;2022-11-25T09:28:02;5.00;;;2.00;;
17363;SDS011;8799;43.594;13.526;2022-11-25T09:30:30;3.63;;;2.00;;
17363;SDS011;8799;43.594;13.526;2022-11-25T09:32:58;3.23;;;1.90;;
17363;SDS011;8799;43.594;13.526;2022-11-25T09:35:26;3.63;;;2.13;;
17363;SDS011;8799;43.594;13.526;2022-11-25T09:37:54;3.93;;;2.07;;
17363;SDS011;8799;43.594;13.526;2022-11-25T09:40:26;4.80;;;2.50;;
17363;SDS011;8799;43.594;13.526;2022-11-25T09:43:05;4.10;;;2.30;;
17363;SDS011;8799;43.594;13.526;2022-11-25T09:46:01;3.93;;;1.70;;
17363;SDS011;8799;43.594;13.526;2022-11-25T09:48:54;3.53;;;1.90;;
17363;SDS011;8799;43.594;13.526;2022-11-25T09:51:27;3.60;;;1.87;;
17363;SDS011;8799;43.594;13.526;2022-11-25T09:54:02;3.93;;;1.70;;
17363;SDS011;8799;43.594;13.526;2022-11-25T09:56:39;4.50;;;1.70;;
17363;SDS011;8799;43.594;13.526;2022-11-25T09:59:11;4.20;;;2.10;;
17363;SDS011;8799;43.594;13.526;2022-11-25T10:01:45;4.90;;;2.10;;
17363;SDS011;8799;43.594;13.526;2022-11-25T10:04:17;10.33;;;2.30;;
17363;SDS011;8799;43.594;13.526;2022-11-25T10:06:50;2.23;;;1.80;;
17363;SDS011;8799;43.594;13.526;2022-11-25T10:09:24;4.57;;;1.80;;
17363;SDS011;8799;43.594;13.526;2022-11-25T10:11:55;3.60;;;2.23;;
17363;SDS011;8799;43.594;13.526;2022-11-25T10:14:32;4.20;;;1.90;;
17363;SDS011;8799;43.594;13.526;2022-11-25T10:17:06;3.73;;;1.97;;
17363;SDS011;8799;43.594;13.526;2022-11-25T10:19:42;3.53;;;2.00;;
17363;SDS011;8799;43.594;13.526;2022-11-25T10:22:22;3.33;;;2.07;;
17363;SDS011;8799;43.594;13.526;2022-11-25T10:24:52;3.97;;;2.23;;
17363;SDS011;8799;43.594;13.526;2022-11-25T10:27:24;4.63;;;2.37;;
17363;SDS011;8799;43.594;13.526;2022-11-25T10:30:01;4.23;;;2.43;;
17363;SDS011;8799;43.594;13.526;2022-11-25T10:32:32;4.27;;;2.20;;
17363;SDS011;8799;43.594;13.526;2022-11-25T10:35:06;7.40;;;2.13;;
17363;SDS011;8799;43.594;13.526;2022-11-25T10:37:43;9.60;;;2.90;;
17363;SDS011;8799;43.594;13.526;2022-11-25T10:40:15;4.23;;;2.73;;
17363;SDS011;8799;43.594;13.526;2022-11-25T10:42:43;6.00;;;2.43;;
17363;SDS011;8799;43.594;13.526;2022-11-25T10:45:13;5.87;;;2.63;;
17363;SDS011;8799;43.594;13.526;2022-11-25T10:47:46;6.30;;;2.80;;
17363;SDS011;8799;43.594;13.526;2022-11-25T10:50:32;10.00;;;4.10;;
17363;SDS011;8799;43.594;13.526;2022-11-25T10:53:09;12.07;;;6.67;;
17363;SDS011;8799;43.594;13.526;2022-11-25T10:55:38;29.03;;;14.70;;
17363;SDS011;8799;43.594;13.526;2022-11-25T10:58:25;37.80;;;22.23;;
17363;SDS011;8799;43.594;13.526;2022-11-25T11:01:13;44.07;;;28.77;;
17363;SDS011;8799;43.594;13.526;2022-11-25T11:03:44;53.60;;;36.40;;
17363;SDS011;8799;43.594;13.526;2022-11-25T11:06:29;72.63;;;45.67;;
17363;SDS011;8799;43.594;13.526;2022-11-25T11:09:01;79.67;;;53.17;;
17363;SDS011;8799;43.594;13.526;2022-11-25T11:11:29;93.67;;;61.67;;
17363;SDS011;8799;43.594;13.526;2022-11-25T11:13:59;103.87;;;68.83;;
17363;SDS011;8799;43.594;13.526;2022-11-25T11:16:41;127.03;;;84.13;;
17363;SDS011;8799;43.594;13.526;2022-11-25T11:19:19;138.63;;;93.87;;
17363;SDS011;8799;43.594;13.526;2022-11-25T11:21:49;145.23;;;98.73;;
17363;SDS011;8799;43.594;13.526;2022-11-25T11:24:25;144.97;;;103.50;;
17363;SDS011;8799;43.594;13.526;2022-11-25T11:27:01;162.27;;;110.80;;
17363;SDS011;8799;43.594;13.526;2022-11-25T11:29:30;175.67;;;112.83;;
17363;SDS011;8799;43.594;13.526;2022-11-25T11:32:00;181.77;;;118.80;;
17363;SDS011;8799;43.594;13.526;2022-11-25T11:34:34;198.03;;;126.03;;
17363;SDS011;8799;43.594;13.526;2022-11-25T11:37:16;188.43;;;127.07;;
17363;SDS011;8799;43.594;13.526;2022-11-25T11:40:00;198.03;;;135.53;;
17363;SDS011;8799;43.594;13.526;2022-11-25T11:42:48;203.67;;;137.67;;
17363;SDS011;8799;43.594;13.526;2022-11-25T11:45:36;216.80;;;140.30;;
17363;SDS011;8799;43.594;13.526;2022-11-25T11:48:19;219.63;;;146.80;;
17363;SDS011;8799;43.594;13.526;2022-11-25T11:50:52;224.97;;;148.53;;
17363;SDS011;8799;43.594;13.526;2022-11-25T11:53:29;218.80;;;146.00;;
17363;SDS011;8799;43.594;13.526;2022-11-25T11:56:02;216.33;;;147.53;;
17363;SDS011;8799;43.594;13.526;2022-11-25T11:58:41;226.17;;;150.47;;
17363;SDS011;8799;43.594;13.526;2022-11-25T12:01:20;224.33;;;146.17;;
17363;SDS011;8799;43.594;13.526;2022-11-25T12:03:59;219.60;;;148.83;;
17363;SDS011;8799;43.594;13.526;2022-11-25T12:06:30;198.87;;;135.17;;
17363;SDS011;8799;43.594;13.526;2022-11-25T12:09:02;209.63;;;136.13;;
17363;SDS011;8799;43.594;13.526;2022-11-25T12:11:35;209.70;;;140.47;;
17363;SDS011;8799;43.594;13.526;2022-11-25T12:14:09;229.30;;;148.77;;
17363;SDS011;8799;43.594;13.526;2022-11-25T12:16:44;212.57;;;143.70;;
17363;SDS011;8799;43.594;13.526;2022-11-25T12:19:21;221.63;;;147.17;;
17363;SDS011;8799;43.594;13.526;2022-11-25T12:21:56;223.33;;;147.17;;
17363;SDS011;8799;43.594;13.526;2022-11-25T12:24:29;219.47;;;143.73;;
17363;SDS011;8799;43.594;13.526;2022-11-25T12:27:04;210.93;;;143.07;;
17363;SDS011;8799;43.594;13.526;2022-11-25T12:29:38;218.77;;;145.10;;
17363;SDS011;8799;43.594;13.526;2022-11-25T12:32:17;218.83;;;145.37;;
17363;SDS011;8799;43.594;13.526;2022-11-25T12:35:03;209.77;;;138.27;;
17363;SDS011;8799;43.594;13.526;2022-11-25T12:37:39;202.77;;;136.70;;
17363;SDS011;8799;43.594;13.526;2022-11-25T12:40:12;212.70;;;138.80;;
17363;SDS011;8799;43.594;13.526;2022-11-25T12:42:43;203.70;;;137.33;;
17363;SDS011;8799;43.594;13.526;2022-11-25T12:45:14;214.07;;;140.80;;
17363;SDS011;8799;43.594;13.526;2022-11-25T12:47:47;202.80;;;136.13;;
17363;SDS011;8799;43.594;13.526;2022-11-25T12:50:18;204.93;;;133.67;;
17363;SDS011;8799;43.594;13.526;2022-11-25T12:52:51;204.87;;;132.63;;
17363;SDS011;8799;43.594;13.526;2022-11-25T12:55:27;205.40;;;135.33;;
17363;SDS011;8799;43.594;13.526;2022-11-25T12:58:05;204.17;;;133.50;;
17363;SDS011;8799;43.594;13.526;2022-11-25T13:07:27;189.00;;;127.47;;
17363;SDS011;8799;43.594;13.526;2022-11-25T13:13:12;191.67;;;126.67;;
17363;SDS011;8799;43.594;13.526;2022-11-25T13:15:57;178.07;;;116.97;;
17363;SDS011;8799;43.594;13.526;2022-11-25T13:18:28;160.23;;;111.43;;
17363;SDS011;8799;43.594;13.526;2022-11-25T13:21:06;165.90;;;106.47;;
17363;SDS011;8799;43.594;13.526;2022-11-25T13:23:42;151.90;;;104.23;;
17363;SDS011;8799;43.594;13.526;2022-11-25T13:32:37;142.17;;;96.27;;
17363;SDS011;8799;43.594;13.526;2022-11-25T13:37:57;144.77;;;98.47;;
17363;SDS011;8799;43.594;13.526;2022-11-25T13:40:32;143.97;;;95.23;;
17363;SDS011;8799;43.594;13.526;2022-11-25T13:43:03;135.63;;;95.03;;
17363;SDS011;8799;43.594;13.526;2022-11-25T13:45:45;147.63;;;99.37;;
17363;SDS011;8799;43.594;13.526;2022-11-25T13:48:17;143.63;;;93.57;;
17363;SDS011;8799;43.594;13.526;2022-11-25T13:50:47;137.30;;;95.93;;
17363;SDS011;8799;43.594;13.526;2022-11-25T13:53:18;139.33;;;94.53;;
17363;SDS011;8799;43.594;13.526;2022-11-25T13:55:51;141.07;;;94.03;;
17363;SDS011;8799;43.594;13.526;2022-11-25T13:58:37;135.77;;;92.70;;
17363;SDS011;8799;43.594;13.526;2022-11-25T14:01:21;135.63;;;90.33;;
17363;SDS011;8799;43.594;13.526;2022-11-25T14:03:53;132.67;;;89.70;;
17363;SDS011;8799;43.594;13.526;2022-11-25T14:06:27;132.60;;;88.40;;
17363;SDS011;8799;43.594;13.526;2022-11-25T14:09:11;133.40;;;90.93;;
17363;SDS011;8799;43.594;13.526;2022-11-25T14:11:56;126.50;;;89.03;;
17363;SDS011;8799;43.594;13.526;2022-11-25T14:14:44;121.07;;;85.33;;
17363;SDS011;8799;43.594;13.526;2022-11-25T14:17:29;127.23;;;84.70;;
17363;SDS011;8799;43.594;13.526;2022-11-25T14:20:38;121.63;;;83.60;;
17363;SDS011;8799;43.594;13.526;2022-11-25T14:23:16;120.93;;;82.83;;
17363;SDS011;8799;43.594;13.526;2022-11-25T14:25:55;124.40;;;83.70;;
17363;SDS011;8799;43.594;13.526;2022-11-25T14:28:33;115.40;;;82.63;;
17363;SDS011;8799;43.594;13.526;2022-11-25T14:31:07;123.13;;;81.43;;
17363;SDS011;8799;43.594;13.526;2022-11-25T14:33:41;116.43;;;82.23;;
17363;SDS011;8799;43.594;13.526;2022-11-25T14:36:16;114.60;;;79.20;;
17363;SDS011;8799;43.594;13.526;2022-11-25T14:38:48;113.10;;;78.80;;
17363;SDS011;8799;43.594;13.526;2022-11-25T14:41:21;114.23;;;78.07;;
17363;SDS011;8799;43.594;13.526;2022-11-25T14:43:54;118.60;;;75.63;;
17363;SDS011;8799;43.594;13.526;2022-11-25T14:46:26;113.37;;;75.30;;
17363;SDS011;8799;43.594;13.526;2022-11-25T14:48:55;104.07;;;72.80;;
17363;SDS011;8799;43.594;13.526;2022-11-25T14:51:24;118.30;;;73.13;;
17363;SDS011;8799;43.594;13.526;2022-11-25T14:53:54;106.47;;;71.37;;
17363;SDS011;8799;43.594;13.526;2022-11-25T14:56:23;99.53;;;69.00;;
17363;SDS011;8799;43.594;13.526;2022-11-25T14:58:54;104.40;;;69.53;;
17363;SDS011;8799;43.594;13.526;2022-11-25T15:01:26;97.10;;;67.33;;
17363;SDS011;8799;43.594;13.526;2022-11-25T15:04:02;100.60;;;68.80;;
17363;SDS011;8799;43.594;13.526;2022-11-25T15:06:32;93.23;;;65.33;;
17363;SDS011;8799;43.594;13.526;2022-11-25T15:09:14;98.23;;;66.93;;
17363;SDS011;8799;43.594;13.526;2022-11-25T15:11:46;102.97;;;67.77;;
17363;SDS011;8799;43.594;13.526;2022-11-25T15:14:20;98.93;;;68.13;;
17363;SDS011;8799;43.594;13.526;2022-11-25T15:16:51;96.30;;;65.30;;
17363;SDS011;8799;43.594;13.526;2022-11-25T15:19:21;97.87;;;65.27;;